sensor_id;sensor_type;location;lat;lon;timestamp;temperature;humidity
22194;DHT22;11262;50.308;9.270;2022-11-15T00:00:21;11.50;99.90
22194;DHT22;11262;50.308;9.270;2022-11-15T00:02:46;11.50;99.90
22194;DHT22;11262;50.308;9.270;2022-11-15T00:05:12;11.60;99.90
22194;DHT22;11262;50.308;9.270;2022-11-15T00:07:38;11.60;99.90
22194;DHT22;11262;50.308;9.270;2022-11-15T00:10:04;11.60;99.90
22194;DHT22;11262;50.308;9.270;2022-11-15T00:12:30;11.60;99.90
22194;DHT22;11262;50.308;9.270;2022-11-15T00:14:55;11.60;99.90
22194;DHT22;11262;50.308;9.270;2022-11-15T00:17:21;11.70;99.90
22194;DHT22;11262;50.308;9.270;2022-11-15T00:19:46;11.60;99.90
22194;DHT22;11262;50.308;9.270;2022-11-15T00:22:12;11.60;99.90
22194;DHT22;11262;50.308;9.270;2022-11-15T00:24:38;11.60;99.90
22194;DHT22;11262;50.308;9.270;2022-11-15T00:27:03;11.60;99.90
22194;DHT22;11262;50.308;9.270;2022-11-15T00:29:29;11.60;99.90
22194;DHT22;11262;50.308;9.270;2022-11-15T00:31:54;11.50;99.90
22194;DHT22;11262;50.308;9.270;2022-11-15T00:34:20;11.40;99.90
22194;DHT22;11262;50.308;9.270;2022-11-15T00:36:45;11.40;99.90
22194;DHT22;11262;50.308;9.270;2022-11-15T00:39:11;11.30;99.90
22194;DHT22;11262;50.308;9.270;2022-11-15T00:41:36;11.20;99.90
22194;DHT22;11262;50.308;9.270;2022-11-15T00:44:02;11.20;99.90
22194;DHT22;11262;50.308;9.270;2022-11-15T00:46:28;11.10;99.90
22194;DHT22;11262;50.308;9.270;2022-11-15T00:48:53;11.00;99.90
22194;DHT22;11262;50.308;9.270;2022-11-15T00:51:19;11.00;99.90
22194;DHT22;11262;50.308;9.270;2022-11-15T00:56:15;10.90;99.90
22194;DHT22;11262;50.308;9.270;2022-11-15T00:58:41;10.80;99.90
22194;DHT22;11262;50.308;9.270;2022-11-15T01:01:12;10.80;99.90
22194;DHT22;11262;50.308;9.270;2022-11-15T01:03:39;10.80;99.90
22194;DHT22;11262;50.308;9.270;2022-11-15T01:06:05;10.80;99.90
22194;DHT22;11262;50.308;9.270;2022-11-15T01:08:31;10.80;99.90
22194;DHT22;11262;50.308;9.270;2022-11-15T01:11:04;10.80;99.90
22194;DHT22;11262;50.308;9.270;2022-11-15T01:13:33;10.80;99.90
22194;DHT22;11262;50.308;9.270;2022-11-15T01:16:04;10.80;99.90
22194;DHT22;11262;50.308;9.270;2022-11-15T01:18:30;10.80;99.90
22194;DHT22;11262;50.308;9.270;2022-11-15T01:20:56;10.90;99.90
22194;DHT22;11262;50.308;9.270;2022-11-15T01:23:21;10.90;99.90
22194;DHT22;11262;50.308;9.270;2022-11-15T01:25:47;10.80;99.90
22194;DHT22;11262;50.308;9.270;2022-11-15T01:28:12;10.90;99.90
22194;DHT22;11262;50.308;9.270;2022-11-15T01:30:38;10.90;99.90
22194;DHT22;11262;50.308;9.270;2022-11-15T01:33:03;10.90;99.90
22194;DHT22;11262;50.308;9.270;2022-11-15T01:35:29;10.90;99.90
22194;DHT22;11262;50.308;9.270;2022-11-15T01:37:55;10.90;99.90
22194;DHT22;11262;50.308;9.270;2022-11-15T01:40:20;11.00;99.90
22194;DHT22;11262;50.308;9.270;2022-11-15T01:42:46;11.00;99.90
22194;DHT22;11262;50.308;9.270;2022-11-15T01:45:15;11.10;99.90
22194;DHT22;11262;50.308;9.270;2022-11-15T01:47:45;11.10;99.90
22194;DHT22;11262;50.308;9.270;2022-11-15T01:50:16;11.10;99.90
22194;DHT22;11262;50.308;9.270;2022-11-15T01:52:42;11.10;99.90
22194;DHT22;11262;50.308;9.270;2022-11-15T01:55:21;11.10;99.90
22194;DHT22;11262;50.308;9.270;2022-11-15T01:57:51;11.10;99.90
22194;DHT22;11262;50.308;9.270;2022-11-15T02:00:18;11.10;99.90
22194;DHT22;11262;50.308;9.270;2022-11-15T02:02:44;11.10;99.90
22194;DHT22;11262;50.308;9.270;2022-11-15T02:05:10;11.10;99.90
22194;DHT22;11262;50.308;9.270;2022-11-15T02:07:36;11.10;99.90
22194;DHT22;11262;50.308;9.270;2022-11-15T02:10:10;11.10;99.90
22194;DHT22;11262;50.308;9.270;2022-11-15T02:12:36;11.10;99.90
22194;DHT22;11262;50.308;9.270;2022-11-15T02:15:04;11.10;99.90
22194;DHT22;11262;50.308;9.270;2022-11-15T02:17:56;11.10;99.90
22194;DHT22;11262;50.308;9.270;2022-11-15T02:28:49;11.00;99.90
22194;DHT22;11262;50.308;9.270;2022-11-15T02:36:22;11.00;99.90
22194;DHT22;11262;50.308;9.270;2022-11-15T02:39:05;10.90;99.90
22194;DHT22;11262;50.308;9.270;2022-11-15T02:41:39;10.90;99.90
22194;DHT22;11262;50.308;9.270;2022-11-15T02:47:00;10.90;99.90
22194;DHT22;11262;50.308;9.270;2022-11-15T02:49:56;10.90;99.90
22194;DHT22;11262;50.308;9.270;2022-11-15T02:52:24;10.80;99.90
22194;DHT22;11262;50.308;9.270;2022-11-15T02:55:00;10.80;99.90
22194;DHT22;11262;50.308;9.270;2022-11-15T03:05:43;10.80;99.90
22194;DHT22;11262;50.308;9.270;2022-11-15T03:11:14;10.90;99.90
22194;DHT22;11262;50.308;9.270;2022-11-15T03:14:02;10.90;99.90
22194;DHT22;11262;50.308;9.270;2022-11-15T03:16:41;10.90;99.90
22194;DHT22;11262;50.308;9.270;2022-11-15T03:22:01;10.80;99.90
22194;DHT22;11262;50.308;9.270;2022-11-15T03:24:29;10.80;99.90
22194;DHT22;11262;50.308;9.270;2022-11-15T03:26:57;10.70;99.90
22194;DHT22;11262;50.308;9.270;2022-11-15T03:29:28;10.60;99.90
22194;DHT22;11262;50.308;9.270;2022-11-15T03:32:10;10.60;99.90
22194;DHT22;11262;50.308;9.270;2022-11-15T03:37:25;10.30;99.90
22194;DHT22;11262;50.308;9.270;2022-11-15T03:39:52;10.20;99.90
22194;DHT22;11262;50.308;9.270;2022-11-15T03:42:21;10.10;99.90
22194;DHT22;11262;50.308;9.270;2022-11-15T03:47:35;9.90;99.90
22194;DHT22;11262;50.308;9.270;2022-11-15T03:50:10;9.70;99.90
22194;DHT22;11262;50.308;9.270;2022-11-15T03:52:37;9.70;99.90
22194;DHT22;11262;50.308;9.270;2022-11-15T03:55:07;9.60;99.90
22194;DHT22;11262;50.308;9.270;2022-11-15T03:57:33;9.60;99.90
22194;DHT22;11262;50.308;9.270;2022-11-15T03:59:59;9.50;99.90
22194;DHT22;11262;50.308;9.270;2022-11-15T04:02:24;9.40;99.90
22194;DHT22;11262;50.308;9.270;2022-11-15T04:04:50;9.40;99.90
22194;DHT22;11262;50.308;9.270;2022-11-15T04:07:16;9.40;99.90
22194;DHT22;11262;50.308;9.270;2022-11-15T04:09:41;9.40;99.90
22194;DHT22;11262;50.308;9.270;2022-11-15T04:12:26;9.30;99.90
22194;DHT22;11262;50.308;9.270;2022-11-15T04:17:43;9.20;99.90
22194;DHT22;11262;50.308;9.270;2022-11-15T04:22:57;9.00;99.90
22194;DHT22;11262;50.308;9.270;2022-11-15T04:25:43;9.00;99.90
22194;DHT22;11262;50.308;9.270;2022-11-15T04:28:09;9.00;99.90
22194;DHT22;11262;50.308;9.270;2022-11-15T04:30:35;8.90;99.90
22194;DHT22;11262;50.308;9.270;2022-11-15T04:33:00;8.90;99.90
22194;DHT22;11262;50.308;9.270;2022-11-15T04:35:26;8.90;99.90
22194;DHT22;11262;50.308;9.270;2022-11-15T04:37:52;8.90;99.90
22194;DHT22;11262;50.308;9.270;2022-11-15T04:40:17;8.90;99.90
22194;DHT22;11262;50.308;9.270;2022-11-15T04:42:43;8.90;99.90
22194;DHT22;11262;50.308;9.270;2022-11-15T04:45:09;8.90;99.90
22194;DHT22;11262;50.308;9.270;2022-11-15T04:47:35;8.90;99.90
22194;DHT22;11262;50.308;9.270;2022-11-15T04:50:01;8.90;99.90
22194;DHT22;11262;50.308;9.270;2022-11-15T04:52:26;8.90;99.90
22194;DHT22;11262;50.308;9.270;2022-11-15T04:54:52;8.90;99.90
22194;DHT22;11262;50.308;9.270;2022-11-15T04:57:18;8.90;99.90
22194;DHT22;11262;50.308;9.270;2022-11-15T04:59:44;8.80;99.90
22194;DHT22;11262;50.308;9.270;2022-11-15T05:02:09;8.80;99.90
22194;DHT22;11262;50.308;9.270;2022-11-15T05:04:35;8.70;99.90
22194;DHT22;11262;50.308;9.270;2022-11-15T05:07:00;8.70;99.90
22194;DHT22;11262;50.308;9.270;2022-11-15T05:09:26;8.70;99.90
22194;DHT22;11262;50.308;9.270;2022-11-15T05:11:52;8.70;99.90
22194;DHT22;11262;50.308;9.270;2022-11-15T05:14:17;8.70;99.90
22194;DHT22;11262;50.308;9.270;2022-11-15T05:16:43;8.70;99.90
22194;DHT22;11262;50.308;9.270;2022-11-15T05:19:08;8.70;99.90
22194;DHT22;11262;50.308;9.270;2022-11-15T05:21:34;8.70;99.90
22194;DHT22;11262;50.308;9.270;2022-11-15T05:24:01;8.70;99.90
22194;DHT22;11262;50.308;9.270;2022-11-15T05:26:27;8.70;99.90
22194;DHT22;11262;50.308;9.270;2022-11-15T05:28:57;8.70;99.90
22194;DHT22;11262;50.308;9.270;2022-11-15T05:31:23;8.80;99.90
22194;DHT22;11262;50.308;9.270;2022-11-15T05:33:50;8.80;99.90
22194;DHT22;11262;50.308;9.270;2022-11-15T05:36:29;8.80;99.90
22194;DHT22;11262;50.308;9.270;2022-11-15T05:38:56;8.80;99.90
22194;DHT22;11262;50.308;9.270;2022-11-15T05:41:27;8.70;99.90
22194;DHT22;11262;50.308;9.270;2022-11-15T05:43:56;8.70;99.90
22194;DHT22;11262;50.308;9.270;2022-11-15T05:46:22;8.80;99.90
22194;DHT22;11262;50.308;9.270;2022-11-15T05:48:51;8.80;99.90
22194;DHT22;11262;50.308;9.270;2022-11-15T05:51:18;8.80;99.90
22194;DHT22;11262;50.308;9.270;2022-11-15T05:53:44;8.80;99.90
22194;DHT22;11262;50.308;9.270;2022-11-15T05:56:11;8.80;99.90
22194;DHT22;11262;50.308;9.270;2022-11-15T05:58:37;8.80;99.90
22194;DHT22;11262;50.308;9.270;2022-11-15T06:01:03;8.80;99.90
22194;DHT22;11262;50.308;9.270;2022-11-15T06:03:29;8.80;99.90
22194;DHT22;11262;50.308;9.270;2022-11-15T06:05:56;8.80;99.90
22194;DHT22;11262;50.308;9.270;2022-11-15T06:08:22;8.80;99.90
22194;DHT22;11262;50.308;9.270;2022-11-15T06:10:47;8.80;99.90
22194;DHT22;11262;50.308;9.270;2022-11-15T06:13:13;8.80;99.90
22194;DHT22;11262;50.308;9.270;2022-11-15T06:15:38;8.80;99.90
22194;DHT22;11262;50.308;9.270;2022-11-15T06:18:04;8.80;99.90
22194;DHT22;11262;50.308;9.270;2022-11-15T06:20:30;8.80;99.90
22194;DHT22;11262;50.308;9.270;2022-11-15T06:23:00;8.70;99.90
22194;DHT22;11262;50.308;9.270;2022-11-15T06:25:27;8.70;99.90
22194;DHT22;11262;50.308;9.270;2022-11-15T06:27:55;8.70;99.90
22194;DHT22;11262;50.308;9.270;2022-11-15T06:30:21;8.60;99.90
22194;DHT22;11262;50.308;9.270;2022-11-15T06:32:47;8.50;99.90
22194;DHT22;11262;50.308;9.270;2022-11-15T06:35:13;8.40;99.90
22194;DHT22;11262;50.308;9.270;2022-11-15T06:37:39;8.40;99.90
22194;DHT22;11262;50.308;9.270;2022-11-15T06:40:06;8.40;99.90
22194;DHT22;11262;50.308;9.270;2022-11-15T06:42:32;8.40;99.90
22194;DHT22;11262;50.308;9.270;2022-11-15T06:44:57;8.40;99.90
22194;DHT22;11262;50.308;9.270;2022-11-15T06:47:23;8.50;99.90
22194;DHT22;11262;50.308;9.270;2022-11-15T06:49:48;8.40;99.90
22194;DHT22;11262;50.308;9.270;2022-11-15T06:52:14;8.50;99.90
22194;DHT22;11262;50.308;9.270;2022-11-15T06:54:39;8.50;99.90
22194;DHT22;11262;50.308;9.270;2022-11-15T06:57:05;8.50;99.90
22194;DHT22;11262;50.308;9.270;2022-11-15T06:59:31;8.40;99.90
22194;DHT22;11262;50.308;9.270;2022-11-15T07:01:56;8.40;99.90
22194;DHT22;11262;50.308;9.270;2022-11-15T07:04:22;8.40;99.90
22194;DHT22;11262;50.308;9.270;2022-11-15T07:06:47;8.40;99.90
22194;DHT22;11262;50.308;9.270;2022-11-15T07:09:13;8.50;99.90
22194;DHT22;11262;50.308;9.270;2022-11-15T07:11:39;8.40;99.90
22194;DHT22;11262;50.308;9.270;2022-11-15T07:14:05;8.40;99.90
22194;DHT22;11262;50.308;9.270;2022-11-15T07:16:30;8.40;99.90
22194;DHT22;11262;50.308;9.270;2022-11-15T07:18:56;8.40;99.90
22194;DHT22;11262;50.308;9.270;2022-11-15T07:21:21;8.50;99.90
22194;DHT22;11262;50.308;9.270;2022-11-15T07:23:47;8.50;99.90
22194;DHT22;11262;50.308;9.270;2022-11-15T07:26:13;8.50;99.90
22194;DHT22;11262;50.308;9.270;2022-11-15T07:28:38;8.60;99.90
22194;DHT22;11262;50.308;9.270;2022-11-15T07:31:06;8.70;99.90
22194;DHT22;11262;50.308;9.270;2022-11-15T07:33:31;8.70;99.90
22194;DHT22;11262;50.308;9.270;2022-11-15T07:36:05;8.80;99.90
22194;DHT22;11262;50.308;9.270;2022-11-15T07:38:32;8.90;99.90
22194;DHT22;11262;50.308;9.270;2022-11-15T07:41:01;9.00;99.90
22194;DHT22;11262;50.308;9.270;2022-11-15T07:43:27;9.00;99.90
22194;DHT22;11262;50.308;9.270;2022-11-15T07:45:57;9.00;99.90
22194;DHT22;11262;50.308;9.270;2022-11-15T07:48:23;9.00;99.90
22194;DHT22;11262;50.308;9.270;2022-11-15T07:50:49;9.00;99.90
22194;DHT22;11262;50.308;9.270;2022-11-15T07:53:15;9.00;99.90
22194;DHT22;11262;50.308;9.270;2022-11-15T07:55:41;9.00;99.90
22194;DHT22;11262;50.308;9.270;2022-11-15T07:58:09;9.00;99.90
22194;DHT22;11262;50.308;9.270;2022-11-15T08:00:35;9.00;99.90
22194;DHT22;11262;50.308;9.270;2022-11-15T08:03:09;9.00;99.90
22194;DHT22;11262;50.308;9.270;2022-11-15T08:05:37;9.10;99.90
22194;DHT22;11262;50.308;9.270;2022-11-15T08:08:03;9.10;99.90
22194;DHT22;11262;50.308;9.270;2022-11-15T08:10:29;9.20;99.90
22194;DHT22;11262;50.308;9.270;2022-11-15T08:15:28;9.50;99.90
22194;DHT22;11262;50.308;9.270;2022-11-15T08:18:14;9.60;99.90
22194;DHT22;11262;50.308;9.270;2022-11-15T08:20:41;9.80;99.90
22194;DHT22;11262;50.308;9.270;2022-11-15T08:23:07;9.90;99.90
22194;DHT22;11262;50.308;9.270;2022-11-15T08:25:34;9.90;99.90
22194;DHT22;11262;50.308;9.270;2022-11-15T08:28:03;10.00;99.90
22194;DHT22;11262;50.308;9.270;2022-11-15T08:30:29;10.10;99.90
22194;DHT22;11262;50.308;9.270;2022-11-15T08:32:57;10.20;99.90
22194;DHT22;11262;50.308;9.270;2022-11-15T08:35:23;10.30;99.90
22194;DHT22;11262;50.308;9.270;2022-11-15T08:37:49;10.40;99.90
22194;DHT22;11262;50.308;9.270;2022-11-15T08:40:15;10.40;99.90
22194;DHT22;11262;50.308;9.270;2022-11-15T08:42:41;10.50;99.90
22194;DHT22;11262;50.308;9.270;2022-11-15T08:45:08;10.60;99.90
22194;DHT22;11262;50.308;9.270;2022-11-15T08:47:34;10.70;99.90
22194;DHT22;11262;50.308;9.270;2022-11-15T08:50:00;10.90;99.90
22194;DHT22;11262;50.308;9.270;2022-11-15T08:52:25;10.90;99.90
22194;DHT22;11262;50.308;9.270;2022-11-15T08:54:51;10.90;99.90
22194;DHT22;11262;50.308;9.270;2022-11-15T08:57:17;10.80;99.90
22194;DHT22;11262;50.308;9.270;2022-11-15T08:59:42;10.80;99.90
22194;DHT22;11262;50.308;9.270;2022-11-15T09:02:13;10.90;99.90
22194;DHT22;11262;50.308;9.270;2022-11-15T09:04:40;11.00;99.90
22194;DHT22;11262;50.308;9.270;2022-11-15T09:07:07;11.30;99.90
22194;DHT22;11262;50.308;9.270;2022-11-15T09:09:32;11.30;99.90
22194;DHT22;11262;50.308;9.270;2022-11-15T09:11:58;11.20;99.90
22194;DHT22;11262;50.308;9.270;2022-11-15T09:14:32;11.10;99.90
22194;DHT22;11262;50.308;9.270;2022-11-15T09:16:58;11.30;99.90
22194;DHT22;11262;50.308;9.270;2022-11-15T09:19:23;11.50;99.90
22194;DHT22;11262;50.308;9.270;2022-11-15T09:21:49;11.50;99.90
22194;DHT22;11262;50.308;9.270;2022-11-15T09:24:15;11.50;99.90
22194;DHT22;11262;50.308;9.270;2022-11-15T09:26:41;11.50;99.90
22194;DHT22;11262;50.308;9.270;2022-11-15T09:29:07;11.60;99.90
22194;DHT22;11262;50.308;9.270;2022-11-15T09:31:36;11.80;99.90
22194;DHT22;11262;50.308;9.270;2022-11-15T09:34:01;12.00;99.90
22194;DHT22;11262;50.308;9.270;2022-11-15T09:36:27;12.20;99.90
22194;DHT22;11262;50.308;9.270;2022-11-15T09:38:53;12.40;99.90
22194;DHT22;11262;50.308;9.270;2022-11-15T09:41:25;12.50;99.90
22194;DHT22;11262;50.308;9.270;2022-11-15T09:44:13;12.30;99.90
22194;DHT22;11262;50.308;9.270;2022-11-15T09:49:18;12.00;99.90
22194;DHT22;11262;50.308;9.270;2022-11-15T09:51:47;12.00;99.90
22194;DHT22;11262;50.308;9.270;2022-11-15T09:56:45;12.10;99.90
22194;DHT22;11262;50.308;9.270;2022-11-15T09:59:28;12.30;99.90
22194;DHT22;11262;50.308;9.270;2022-11-15T10:05:14;12.30;99.90
22194;DHT22;11262;50.308;9.270;2022-11-15T10:08:06;12.40;99.90
22194;DHT22;11262;50.308;9.270;2022-11-15T10:10:40;12.40;99.90
22194;DHT22;11262;50.308;9.270;2022-11-15T10:13:26;12.50;99.90
22194;DHT22;11262;50.308;9.270;2022-11-15T10:19:01;12.90;99.90
22194;DHT22;11262;50.308;9.270;2022-11-15T10:22:05;12.90;99.90
22194;DHT22;11262;50.308;9.270;2022-11-15T10:24:42;12.90;99.90
22194;DHT22;11262;50.308;9.270;2022-11-15T10:27:12;12.80;99.90
22194;DHT22;11262;50.308;9.270;2022-11-15T10:29:43;12.90;99.90
22194;DHT22;11262;50.308;9.270;2022-11-15T10:32:12;12.90;99.90
22194;DHT22;11262;50.308;9.270;2022-11-15T10:34:37;13.10;99.90
22194;DHT22;11262;50.308;9.270;2022-11-15T10:37:03;13.30;99.90
22194;DHT22;11262;50.308;9.270;2022-11-15T10:39:29;13.40;99.90
22194;DHT22;11262;50.308;9.270;2022-11-15T10:41:55;13.40;99.90
22194;DHT22;11262;50.308;9.270;2022-11-15T10:44:28;13.60;99.90
22194;DHT22;11262;50.308;9.270;2022-11-15T10:49:21;14.00;99.90
22194;DHT22;11262;50.308;9.270;2022-11-15T10:52:17;14.10;99.90
22194;DHT22;11262;50.308;9.270;2022-11-15T10:57:27;14.30;99.90
22194;DHT22;11262;50.308;9.270;2022-11-15T11:00:34;14.40;99.90
22194;DHT22;11262;50.308;9.270;2022-11-15T11:03:02;14.60;99.90
22194;DHT22;11262;50.308;9.270;2022-11-15T11:05:35;14.70;99.90
22194;DHT22;11262;50.308;9.270;2022-11-15T11:10:29;14.70;99.90
22194;DHT22;11262;50.308;9.270;2022-11-15T11:12:55;15.10;99.90
22194;DHT22;11262;50.308;9.270;2022-11-15T11:15:24;15.20;99.90
22194;DHT22;11262;50.308;9.270;2022-11-15T11:20:41;14.70;99.90
22194;DHT22;11262;50.308;9.270;2022-11-15T11:28:55;14.50;99.90
22194;DHT22;11262;50.308;9.270;2022-11-15T11:42:18;14.20;99.90
22194;DHT22;11262;50.308;9.270;2022-11-15T11:47:32;14.10;99.90
22194;DHT22;11262;50.308;9.270;2022-11-15T11:50:10;14.10;99.90
22194;DHT22;11262;50.308;9.270;2022-11-15T11:52:45;14.10;99.90
22194;DHT22;11262;50.308;9.270;2022-11-15T11:58:30;14.30;99.90
22194;DHT22;11262;50.308;9.270;2022-11-15T12:01:34;14.40;99.90
22194;DHT22;11262;50.308;9.270;2022-11-15T12:04:03;14.50;99.90
22194;DHT22;11262;50.308;9.270;2022-11-15T12:09:07;14.20;99.90
22194;DHT22;11262;50.308;9.270;2022-11-15T12:14:42;14.50;99.90
22194;DHT22;11262;50.308;9.270;2022-11-15T12:17:13;14.60;99.90
22194;DHT22;11262;50.308;9.270;2022-11-15T12:19:40;14.30;99.90
22194;DHT22;11262;50.308;9.270;2022-11-15T12:22:21;14.50;99.90
22194;DHT22;11262;50.308;9.270;2022-11-15T12:30:21;14.30;99.90
22194;DHT22;11262;50.308;9.270;2022-11-15T12:32:57;14.30;99.90
22194;DHT22;11262;50.308;9.270;2022-11-15T12:35:37;14.30;99.90
22194;DHT22;11262;50.308;9.270;2022-11-15T12:38:04;14.30;99.90
22194;DHT22;11262;50.308;9.270;2022-11-15T12:41:15;14.20;99.90
22194;DHT22;11262;50.308;9.270;2022-11-15T12:43:42;14.20;99.90
22194;DHT22;11262;50.308;9.270;2022-11-15T12:51:12;14.20;99.90
22194;DHT22;11262;50.308;9.270;2022-11-15T12:53:37;14.20;99.90
22194;DHT22;11262;50.308;9.270;2022-11-15T12:58:59;14.30;99.90
22194;DHT22;11262;50.308;9.270;2022-11-15T13:07:09;14.50;99.90
22194;DHT22;11262;50.308;9.270;2022-11-15T13:09:55;14.70;99.90
22194;DHT22;11262;50.308;9.270;2022-11-15T13:15:00;15.30;99.90
22194;DHT22;11262;50.308;9.270;2022-11-15T13:17:55;15.30;99.90
22194;DHT22;11262;50.308;9.270;2022-11-15T13:20:29;15.10;99.90
22194;DHT22;11262;50.308;9.270;2022-11-15T13:30:51;14.80;99.90
22194;DHT22;11262;50.308;9.270;2022-11-15T13:35:55;14.80;99.90
22194;DHT22;11262;50.308;9.270;2022-11-15T13:38:28;14.70;99.90
22194;DHT22;11262;50.308;9.270;2022-11-15T13:40:54;14.70;99.90
22194;DHT22;11262;50.308;9.270;2022-11-15T13:48:39;14.40;99.90
22194;DHT22;11262;50.308;9.270;2022-11-15T13:53:41;14.20;99.90
22194;DHT22;11262;50.308;9.270;2022-11-15T13:56:08;14.10;99.90
22194;DHT22;11262;50.308;9.270;2022-11-15T13:58:37;14.10;99.90
22194;DHT22;11262;50.308;9.270;2022-11-15T14:01:05;14.00;99.90
22194;DHT22;11262;50.308;9.270;2022-11-15T14:03:39;13.90;99.90
22194;DHT22;11262;50.308;9.270;2022-11-15T14:06:15;13.80;99.90
22194;DHT22;11262;50.308;9.270;2022-11-15T14:11:25;13.60;99.90
22194;DHT22;11262;50.308;9.270;2022-11-15T14:14:13;13.60;99.90
22194;DHT22;11262;50.308;9.270;2022-11-15T14:16:48;13.60;99.90
22194;DHT22;11262;50.308;9.270;2022-11-15T14:24:36;13.60;99.90
22194;DHT22;11262;50.308;9.270;2022-11-15T14:29:48;14.80;99.90
22194;DHT22;11262;50.308;9.270;2022-11-15T14:32:16;15.10;99.90
22194;DHT22;11262;50.308;9.270;2022-11-15T14:34:43;15.10;99.90
22194;DHT22;11262;50.308;9.270;2022-11-15T14:37:29;14.70;99.90
22194;DHT22;11262;50.308;9.270;2022-11-15T14:39:58;14.40;99.90
22194;DHT22;11262;50.308;9.270;2022-11-15T14:42:24;14.10;99.90
22194;DHT22;11262;50.308;9.270;2022-11-15T14:44:50;13.80;99.90
22194;DHT22;11262;50.308;9.270;2022-11-15T14:47:16;13.70;99.90
22194;DHT22;11262;50.308;9.270;2022-11-15T14:49:41;13.40;99.90
22194;DHT22;11262;50.308;9.270;2022-11-15T14:52:26;13.40;99.90
22194;DHT22;11262;50.308;9.270;2022-11-15T14:54:54;13.30;99.90
22194;DHT22;11262;50.308;9.270;2022-11-15T14:57:20;13.20;99.90
22194;DHT22;11262;50.308;9.270;2022-11-15T14:59:46;13.10;99.90
22194;DHT22;11262;50.308;9.270;2022-11-15T15:02:23;13.00;99.90
22194;DHT22;11262;50.308;9.270;2022-11-15T15:04:50;12.90;99.90
22194;DHT22;11262;50.308;9.270;2022-11-15T15:07:16;12.80;99.90
22194;DHT22;11262;50.308;9.270;2022-11-15T15:09:43;12.70;99.90
22194;DHT22;11262;50.308;9.270;2022-11-15T15:12:16;12.60;99.90
22194;DHT22;11262;50.308;9.270;2022-11-15T15:14:42;12.50;99.90
22194;DHT22;11262;50.308;9.270;2022-11-15T15:17:08;12.50;99.90
22194;DHT22;11262;50.308;9.270;2022-11-15T15:19:33;12.40;99.90
22194;DHT22;11262;50.308;9.270;2022-11-15T15:21:59;12.40;99.90
22194;DHT22;11262;50.308;9.270;2022-11-15T15:24:24;12.30;99.90
22194;DHT22;11262;50.308;9.270;2022-11-15T15:26:50;12.30;99.90
22194;DHT22;11262;50.308;9.270;2022-11-15T15:29:17;12.20;99.90
22194;DHT22;11262;50.308;9.270;2022-11-15T15:32:03;12.10;99.90
22194;DHT22;11262;50.308;9.270;2022-11-15T15:34:48;12.10;99.90
22194;DHT22;11262;50.308;9.270;2022-11-15T15:37:35;12.00;99.90
22194;DHT22;11262;50.308;9.270;2022-11-15T15:40:17;12.00;99.90
22194;DHT22;11262;50.308;9.270;2022-11-15T15:42:48;11.90;99.90
22194;DHT22;11262;50.308;9.270;2022-11-15T15:45:21;11.90;99.90
22194;DHT22;11262;50.308;9.270;2022-11-15T15:47:56;11.80;99.90
22194;DHT22;11262;50.308;9.270;2022-11-15T15:50:35;11.70;99.90
22194;DHT22;11262;50.308;9.270;2022-11-15T15:53:03;11.70;99.90
22194;DHT22;11262;50.308;9.270;2022-11-15T15:55:29;11.60;99.90
22194;DHT22;11262;50.308;9.270;2022-11-15T15:57:55;11.50;99.90
22194;DHT22;11262;50.308;9.270;2022-11-15T16:00:22;11.50;99.90
22194;DHT22;11262;50.308;9.270;2022-11-15T16:02:50;11.50;99.90
22194;DHT22;11262;50.308;9.270;2022-11-15T16:05:16;11.40;99.90
22194;DHT22;11262;50.308;9.270;2022-11-15T16:07:42;11.40;99.90
22194;DHT22;11262;50.308;9.270;2022-11-15T16:10:38;11.40;99.90
22194;DHT22;11262;50.308;9.270;2022-11-15T16:13:04;11.30;99.90
22194;DHT22;11262;50.308;9.270;2022-11-15T16:15:30;11.40;99.90
22194;DHT22;11262;50.308;9.270;2022-11-15T16:18:01;11.30;99.90
22194;DHT22;11262;50.308;9.270;2022-11-15T16:23:03;11.20;99.90
22194;DHT22;11262;50.308;9.270;2022-11-15T16:25:32;11.20;99.90
22194;DHT22;11262;50.308;9.270;2022-11-15T16:27:59;11.20;99.90
22194;DHT22;11262;50.308;9.270;2022-11-15T16:30:25;11.10;99.90
22194;DHT22;11262;50.308;9.270;2022-11-15T16:32:51;11.10;99.90
22194;DHT22;11262;50.308;9.270;2022-11-15T16:35:17;11.10;99.90
22194;DHT22;11262;50.308;9.270;2022-11-15T16:37:43;11.10;99.90
22194;DHT22;11262;50.308;9.270;2022-11-15T16:40:27;11.10;99.90
22194;DHT22;11262;50.308;9.270;2022-11-15T16:42:53;11.10;99.90
22194;DHT22;11262;50.308;9.270;2022-11-15T16:45:21;11.10;99.90
22194;DHT22;11262;50.308;9.270;2022-11-15T16:47:47;11.10;99.90
22194;DHT22;11262;50.308;9.270;2022-11-15T16:52:57;11.10;99.90
22194;DHT22;11262;50.308;9.270;2022-11-15T16:55:26;11.10;99.90
22194;DHT22;11262;50.308;9.270;2022-11-15T16:57:52;11.10;99.90
22194;DHT22;11262;50.308;9.270;2022-11-15T17:00:19;11.10;99.90
22194;DHT22;11262;50.308;9.270;2022-11-15T17:02:46;11.00;99.90
22194;DHT22;11262;50.308;9.270;2022-11-15T17:05:13;11.00;99.90
22194;DHT22;11262;50.308;9.270;2022-11-15T17:07:39;11.00;99.90
22194;DHT22;11262;50.308;9.270;2022-11-15T17:13:23;11.00;99.90
22194;DHT22;11262;50.308;9.270;2022-11-15T17:15:48;10.90;99.90
22194;DHT22;11262;50.308;9.270;2022-11-15T17:18:14;10.90;99.90
22194;DHT22;11262;50.308;9.270;2022-11-15T17:20:40;10.90;99.90
22194;DHT22;11262;50.308;9.270;2022-11-15T17:23:11;10.90;99.90
22194;DHT22;11262;50.308;9.270;2022-11-15T17:25:38;10.90;99.90
22194;DHT22;11262;50.308;9.270;2022-11-15T17:28:04;10.90;99.90
22194;DHT22;11262;50.308;9.270;2022-11-15T17:30:29;10.90;99.90
22194;DHT22;11262;50.308;9.270;2022-11-15T17:32:55;10.90;99.90
22194;DHT22;11262;50.308;9.270;2022-11-15T17:35:21;10.90;99.90
22194;DHT22;11262;50.308;9.270;2022-11-15T17:37:46;10.90;99.90
22194;DHT22;11262;50.308;9.270;2022-11-15T17:40:12;10.90;99.90
22194;DHT22;11262;50.308;9.270;2022-11-15T17:42:41;10.90;99.90
22194;DHT22;11262;50.308;9.270;2022-11-15T17:51:38;10.80;99.90
22194;DHT22;11262;50.308;9.270;2022-11-15T17:54:03;10.80;99.90
22194;DHT22;11262;50.308;9.270;2022-11-15T17:56:29;10.80;99.90
22194;DHT22;11262;50.308;9.270;2022-11-15T17:58:57;10.80;99.90
22194;DHT22;11262;50.308;9.270;2022-11-15T18:01:31;10.80;99.90
22194;DHT22;11262;50.308;9.270;2022-11-15T18:03:58;10.80;99.90
22194;DHT22;11262;50.308;9.270;2022-11-15T18:13:03;10.80;99.90
22194;DHT22;11262;50.308;9.270;2022-11-15T18:15:29;10.80;99.90
22194;DHT22;11262;50.308;9.270;2022-11-15T18:17:54;10.80;99.90
22194;DHT22;11262;50.308;9.270;2022-11-15T18:20:20;10.80;99.90
22194;DHT22;11262;50.308;9.270;2022-11-15T18:22:45;10.80;99.90
22194;DHT22;11262;50.308;9.270;2022-11-15T18:31:52;10.80;99.90
22194;DHT22;11262;50.308;9.270;2022-11-15T18:34:23;10.80;99.90
22194;DHT22;11262;50.308;9.270;2022-11-15T18:36:51;10.70;99.90
22194;DHT22;11262;50.308;9.270;2022-11-15T18:39:17;10.70;99.90
22194;DHT22;11262;50.308;9.270;2022-11-15T18:41:43;10.70;99.90